Time;durP1;ratioP1;P1;durP2;ratioP2;P2;SDS_P1;SDS_P2;PMS_P1;PMS_P2;Temp;Humidity;BMP_temperature;BMP_pressure;BME280_temperature;BME280_humidity;BME280_pressure;Samples;Min_cycle;Max_cycle;Signal;HPM_P1;HPM_P2
2023/06/22 00:00:58;;;;;;;0.05;0.05;;;21.10;99.90;;;;;;5073335;28;20097;-74
2023/06/22 00:03:25;;;;;;;0.00;0.00;;;21.40;99.90;;;;;;5073108;28;20017;-74
2023/06/22 00:05:51;;;;;;;0.00;0.00;;;21.00;99.90;;;;;;5073104;28;20036;-74
2023/06/22 00:08:18;;;;;;;0.00;0.00;;;20.80;99.90;;;;;;5073029;28;20111;-74
2023/06/22 00:10:44;;;;;;;0.03;0.03;;;20.70;99.90;;;;;;5073272;28;20028;-74
2023/06/22 00:13:10;;;;;;;0.00;0.00;;;20.80;99.90;;;;;;5073001;28;20090;-74
2023/06/22 00:15:37;;;;;;;0.00;0.00;;;20.60;99.90;;;;;;5072904;28;20115;-73
2023/06/22 00:18:03;;;;;;;0.00;0.00;;;20.60;99.90;;;;;;5073090;28;20033;-75
2023/06/22 00:20:29;;;;;;;0.00;0.00;;;20.80;99.90;;;;;;5072731;28;20027;-74
2023/06/22 00:22:59;;;;;;;0.00;0.00;;;20.80;99.90;;;;;;5071772;28;20485;-74
2023/06/22 00:25:25;;;;;;;0.00;0.00;;;20.90;99.90;;;;;;5072867;28;20063;-74
2023/06/22 00:27:51;;;;;;;0.00;0.00;;;21.00;99.90;;;;;;5072931;28;20076;-74
2023/06/22 00:30:18;;;;;;;0.00;0.00;;;20.70;99.90;;;;;;5071725;28;20385;-75
2023/06/22 00:32:45;;;;;;;0.00;0.00;;;20.80;99.90;;;;;;5072360;28;20552;-74
2023/06/22 00:35:12;;;;;;;0.08;0.08;;;21.00;99.90;;;;;;5071360;28;20392;-74
2023/06/22 00:37:40;;;;;;;0.63;0.63;;;21.10;99.90;;;;;;5072571;28;20028;-74
2023/06/22 00:40:09;;;;;;;0.00;0.00;;;20.60;99.90;;;;;;5071230;28;20029;-75
2023/06/22 00:42:34;;;;;;;0.00;0.00;;;20.40;99.90;;;;;;5072589;28;20365;-75
2023/06/22 00:45:00;;;;;;;0.00;0.00;;;20.50;99.90;;;;;;5071460;28;20031;-75
2023/06/22 00:47:27;;;;;;;0.15;0.15;;;20.60;99.90;;;;;;5072824;28;20111;-74
2023/06/22 00:49:53;;;;;;;0.00;0.00;;;20.30;99.90;;;;;;5070866;28;20111;-74
2023/06/22 00:52:27;;;;;;;0.00;0.00;;;20.30;99.90;;;;;;5071656;28;20051;-75
2023/06/22 00:54:54;;;;;;;0.00;0.00;;;20.40;99.90;;;;;;5054185;28;20044;-75
2023/06/22 00:57:21;;;;;;;0.10;0.10;;;20.70;99.90;;;;;;5071688;28;20047;-75
2023/06/22 00:59:48;;;;;;;0.10;0.10;;;20.80;99.90;;;;;;5070754;28;20020;-74
2023/06/22 01:02:14;;;;;;;0.10;0.10;;;20.90;99.90;;;;;;5071476;28;20025;-75
2023/06/22 01:04:40;;;;;;;0.00;0.00;;;20.90;99.90;;;;;;5072281;28;20024;-75
2023/06/22 01:07:22;;;;;;;1.77;0.65;;;20.40;99.90;;;;;;5056016;28;20104;-74
2023/06/22 01:09:54;;;;;;;;;;;20.10;99.90;;;;;;5052565;28;20104;-76
2023/06/22 01:12:20;;;;;;;0.00;0.00;;;20.00;99.90;;;;;;5052338;28;19947;-76
2023/06/22 01:15:29;;;;;;;1.65;1.55;;;20.00;99.90;;;;;;5052087;28;20037;-76
2023/06/22 01:17:58;;;;;;;2.35;1.73;;;20.20;99.90;;;;;;5051978;28;20120;-75
2023/06/22 01:20:27;;;;;;;0.00;0.00;;;20.50;99.90;;;;;;5052365;28;20017;-76
2023/06/22 01:23:29;;;;;;;0.00;0.00;;;20.60;99.90;;;;;;5052490;28;20033;-76
2023/06/22 01:26:22;;;;;;;0.00;0.00;;;20.70;99.90;;;;;;5021800;28;20370;-76
2023/06/22 01:28:54;;;;;;;0.00;0.00;;;20.80;99.90;;;;;;5038494;28;20029;-76
2023/06/22 01:31:26;;;;;;;0.10;0.10;;;20.70;99.90;;;;;;5050902;28;20039;-76
2023/06/22 01:33:59;;;;;;;0.00;0.00;;;20.20;99.90;;;;;;5051811;28;20111;-75
2023/06/22 01:36:26;;;;;;;0.00;0.00;;;20.00;99.90;;;;;;5051028;28;20040;-76
2023/06/22 01:38:52;;;;;;;0.30;0.30;;;20.10;99.90;;;;;;5052137;28;20071;-76
2023/06/22 01:41:20;;;;;;;0.00;0.00;;;20.20;99.90;;;;;;5052077;28;20028;-76
2023/06/22 01:43:47;;;;;;;0.00;0.00;;;20.40;99.90;;;;;;5051929;28;20095;-75
2023/06/22 01:46:14;;;;;;;0.00;0.00;;;20.50;99.90;;;;;;5053482;28;20042;-75
2023/06/22 01:48:40;;;;;;;0.00;0.00;;;20.20;99.90;;;;;;5055814;28;20127;-76
2023/06/22 01:51:07;;;;;;;1.10;1.08;;;20.00;99.90;;;;;;5054424;28;20051;-77
2023/06/22 01:53:33;;;;;;;0.00;0.00;;;20.10;99.90;;;;;;5054639;28;20017;-76
2023/06/22 01:55:58;;;;;;;0.10;0.10;;;19.60;99.90;;;;;;5055488;28;20040;-76
2023/06/22 01:58:29;;;;;;;0.00;0.00;;;19.70;99.90;;;;;;5054708;28;20432;-76
2023/06/22 02:01:11;;;;;;;0.00;0.00;;;19.80;99.90;;;;;;5053953;28;20047;-76
2023/06/22 02:03:53;;;;;;;0.15;0.15;;;19.70;99.90;;;;;;5055469;28;20533;-75
2023/06/22 02:06:35;;;;;;;0.00;0.00;;;19.50;99.90;;;;;;5055497;28;20033;-76
2023/06/22 02:09:06;;;;;;;0.00;0.00;;;19.70;99.90;;;;;;5055592;28;20017;-76
2023/06/22 02:11:33;;;;;;;0.00;0.00;;;19.80;99.90;;;;;;5054039;28;20120;-76
2023/06/22 02:13:59;;;;;;;0.00;0.00;;;19.90;99.90;;;;;;5055404;28;20045;-76
2023/06/22 02:16:29;;;;;;;0.00;0.00;;;20.10;99.90;;;;;;5053629;28;20461;-76
2023/06/22 02:18:56;;;;;;;0.00;0.00;;;20.20;99.90;;;;;;5055416;28;20045;-76
2023/06/22 02:21:23;;;;;;;0.03;0.03;;;20.20;99.90;;;;;;5055193;28;20074;-76
2023/06/22 02:23:49;;;;;;;0.00;0.00;;;19.90;99.90;;;;;;5054202;28;20044;-76
2023/06/22 02:26:17;;;;;;;0.05;0.05;;;20.00;99.90;;;;;;5053664;28;20013;-75
2023/06/22 02:28:43;;;;;;;0.00;0.00;;;20.00;99.90;;;;;;5055313;28;20021;-76
2023/06/22 02:31:08;;;;;;;0.43;0.43;;;20.20;99.90;;;;;;5053689;28;20111;-76
2023/06/22 02:33:35;;;;;;;0.00;0.00;;;20.00;99.90;;;;;;5054993;28;20029;-75
2023/06/22 02:36:04;;;;;;;0.00;0.00;;;19.90;99.90;;;;;;5055066;28;20029;-76
2023/06/22 02:38:34;;;;;;;0.00;0.00;;;20.00;99.90;;;;;;5053583;28;20107;-77
2023/06/22 02:41:00;;;;;;;0.10;0.10;;;20.20;99.90;;;;;;5054702;28;20163;-76
2023/06/22 02:43:26;;;;;;;0.00;0.00;;;20.30;99.90;;;;;;5054722;28;20115;-76
2023/06/22 02:45:53;;;;;;;0.00;0.00;;;20.10;99.90;;;;;;5053214;28;20460;-76
2023/06/22 02:48:19;;;;;;;0.00;0.00;;;20.00;99.90;;;;;;5054748;28;20037;-76
2023/06/22 02:50:45;;;;;;;0.00;0.00;;;20.10;99.90;;;;;;5054957;28;20017;-77
2023/06/22 02:53:10;;;;;;;0.20;0.20;;;20.20;99.90;;;;;;5054620;28;20104;-76
2023/06/22 02:55:40;;;;;;;0.10;0.10;;;20.00;99.90;;;;;;5052873;28;20041;-75
2023/06/22 02:58:06;;;;;;;0.00;0.00;;;19.80;99.90;;;;;;5054690;28;20022;-77
2023/06/22 03:00:35;;;;;;;0.00;0.00;;;19.90;99.90;;;;;;5052928;28;20024;-76
2023/06/22 03:03:01;;;;;;;0.00;0.00;;;20.10;99.90;;;;;;5053176;28;20036;-75
2023/06/22 03:05:27;;;;;;;0.40;0.40;;;20.00;99.90;;;;;;5053077;28;20020;-76
2023/06/22 03:07:54;;;;;;;0.00;0.00;;;20.20;99.90;;;;;;5053196;28;20032;-76
2023/06/22 03:10:21;;;;;;;0.00;0.00;;;20.20;99.90;;;;;;5053150;28;20036;-75
2023/06/22 03:12:47;;;;;;;0.00;0.00;;;20.20;99.90;;;;;;5054684;28;20025;-76
2023/06/22 03:15:13;;;;;;;0.08;0.08;;;20.30;99.90;;;;;;5052930;28;20045;-76
2023/06/22 03:17:41;;;;;;;0.05;0.05;;;20.10;99.90;;;;;;5052777;28;20451;-77
2023/06/22 03:20:10;;;;;;;0.43;0.43;;;20.20;99.90;;;;;;5053112;28;20029;-76
2023/06/22 03:22:36;;;;;;;0.00;0.00;;;20.20;99.90;;;;;;5052688;28;20104;-76
2023/06/22 03:25:02;;;;;;;0.03;0.03;;;20.10;99.90;;;;;;5054338;28;20037;-76
2023/06/22 03:27:28;;;;;;;0.00;0.00;;;20.20;99.90;;;;;;5052709;28;20036;-76
2023/06/22 03:29:56;;;;;;;0.00;0.00;;;20.10;99.90;;;;;;5052420;28;20032;-76
2023/06/22 03:32:22;;;;;;;0.00;0.00;;;19.80;99.90;;;;;;5053956;28;20013;-77
2023/06/22 03:34:49;;;;;;;0.98;0.98;;;19.90;99.90;;;;;;5051963;28;20037;-76
2023/06/22 03:37:15;;;;;;;0.00;0.00;;;20.00;99.90;;;;;;5051725;28;20063;-76
2023/06/22 03:39:42;;;;;;;0.17;0.17;;;20.10;99.90;;;;;;5053542;28;20057;-76
2023/06/22 03:42:08;;;;;;;0.10;0.10;;;20.20;99.90;;;;;;5042962;28;20025;-76
2023/06/22 03:44:36;;;;;;;0.05;0.05;;;20.00;99.90;;;;;;5052346;28;20048;-76
2023/06/22 03:47:04;;;;;;;0.00;0.00;;;19.90;99.90;;;;;;5053477;28;20079;-76
2023/06/22 03:49:29;;;;;;;2.65;2.17;;;20.00;99.90;;;;;;5052185;28;20479;-76
2023/06/22 03:51:56;;;;;;;0.00;0.00;;;20.00;99.90;;;;;;5052294;28;20047;-77
2023/06/22 03:54:21;;;;;;;0.00;0.00;;;19.80;99.90;;;;;;5053455;28;20037;-77
2023/06/22 03:56:47;;;;;;;0.00;0.00;;;19.70;99.90;;;;;;5053342;28;20361;-76
2023/06/22 03:59:13;;;;;;;0.00;0.00;;;19.80;99.90;;;;;;5053194;28;20086;-76
2023/06/22 04:01:39;;;;;;;0.03;0.03;;;19.90;99.90;;;;;;5052248;28;20044;-76
2023/06/22 04:04:06;;;;;;;0.05;0.05;;;20.00;99.90;;;;;;5053062;28;20040;-76
2023/06/22 04:06:31;;;;;;;0.00;0.00;;;20.20;99.90;;;;;;5053390;28;20035;-76
2023/06/22 04:08:57;;;;;;;0.00;0.00;;;20.20;99.90;;;;;;5052131;28;20100;-76
2023/06/22 04:11:23;;;;;;;0.00;0.00;;;19.70;99.90;;;;;;5053257;28;20032;-76
2023/06/22 04:13:51;;;;;;;0.00;0.00;;;19.60;99.90;;;;;;5052810;28;20112;-76
2023/06/22 04:16:16;;;;;;;1.55;1.45;;;19.60;99.90;;;;;;5053181;28;20492;-76
2023/06/22 04:18:42;;;;;;;1.05;0.55;;;19.60;99.90;;;;;;5053107;28;20029;-76
2023/06/22 04:21:10;;;;;;;0.00;0.00;;;19.50;99.90;;;;;;5052916;28;20029;-76
2023/06/22 04:23:36;;;;;;;0.00;0.00;;;19.50;99.90;;;;;;5051896;28;20017;-76
2023/06/22 04:26:01;;;;;;;0.00;0.00;;;19.80;99.90;;;;;;5052857;28;20481;-77
2023/06/22 04:28:27;;;;;;;0.00;0.00;;;20.00;99.90;;;;;;5052836;28;20017;-77
2023/06/22 04:30:58;;;;;;;0.00;0.00;;;20.10;99.90;;;;;;5051685;28;20234;-78
2023/06/22 04:33:23;;;;;;;0.38;0.38;;;20.10;99.90;;;;;;5052597;28;20021;-77
2023/06/22 04:35:50;;;;;;;0.00;0.00;;;20.30;99.90;;;;;;5051847;28;20389;-77
2023/06/22 04:38:16;;;;;;;0.00;0.00;;;20.40;99.90;;;;;;5052753;28;20025;-77
2023/06/22 04:40:42;;;;;;;0.00;0.00;;;20.50;99.90;;;;;;5051374;28;20047;-77
2023/06/22 04:43:09;;;;;;;0.10;0.10;;;20.50;99.90;;;;;;5052897;28;20493;-76
2023/06/22 04:45:37;;;;;;;0.43;0.17;;;20.60;99.90;;;;;;5052791;28;20032;-77
2023/06/22 04:48:04;;;;;;;0.00;0.00;;;20.70;99.90;;;;;;5052834;28;20381;-77
2023/06/22 04:50:30;;;;;;;0.00;0.00;;;20.90;99.90;;;;;;5052666;28;20375;-77
2023/06/22 04:52:56;;;;;;;0.35;0.35;;;21.00;99.90;;;;;;5052755;28;20025;-77
2023/06/22 04:55:22;;;;;;;0.00;0.00;;;20.80;99.90;;;;;;5051840;28;20033;-78
2023/06/22 04:57:48;;;;;;;0.20;0.20;;;20.70;99.90;;;;;;5052687;28;20017;-75
2023/06/22 05:00:23;;;;;;;0.00;0.00;;;20.70;99.90;;;;;;5052139;28;20052;-76
2023/06/22 05:02:49;;;;;;;0.70;0.30;;;20.70;99.90;;;;;;5052674;28;20033;-77
2023/06/22 05:05:16;;;;;;;0.00;0.00;;;20.90;99.90;;;;;;5046777;28;20691;-81
2023/06/22 05:07:48;;;;;;;0.00;0.00;;;21.00;99.90;;;;;;5043257;28;20028;-81
2023/06/22 05:10:14;;;;;;;0.00;0.00;;;21.10;99.90;;;;;;5051418;28;20089;-80
2023/06/22 05:12:41;;;;;;;0.00;0.00;;;21.20;99.90;;;;;;5049820;28;20056;-80
2023/06/22 05:15:08;;;;;;;0.00;0.00;;;21.40;99.90;;;;;;5051530;28;20068;-79
2023/06/22 05:17:35;;;;;;;0.00;0.00;;;21.50;99.90;;;;;;5051925;28;20029;-80
2023/06/22 05:20:02;;;;;;;0.20;0.20;;;21.50;99.90;;;;;;5053927;28;20086;-80
2023/06/22 05:22:28;;;;;;;0.10;0.10;;;21.60;99.90;;;;;;5055970;28;20083;-79
2023/06/22 05:24:54;;;;;;;0.00;0.00;;;21.50;99.90;;;;;;5055019;28;20465;-79
2023/06/22 05:27:19;;;;;;;0.00;0.00;;;21.90;99.90;;;;;;5055564;28;20032;-80
2023/06/22 05:29:45;;;;;;;0.45;0.45;;;22.00;99.90;;;;;;5054982;28;20057;-78
2023/06/22 05:32:11;;;;;;;2.38;0.77;;;21.70;99.90;;;;;;5043501;28;20040;-79
2023/06/22 05:34:37;;;;;;;0.85;0.85;;;21.80;99.90;;;;;;5055055;28;20047;-79
2023/06/22 05:37:04;;;;;;;0.17;0.17;;;21.70;99.90;;;;;;5055325;28;20050;-80
2023/06/22 05:39:29;;;;;;;0.00;0.00;;;21.40;99.90;;;;;;5054763;28;20087;-79
2023/06/22 05:41:55;;;;;;;0.08;0.08;;;21.70;99.90;;;;;;5055085;28;20072;-79
2023/06/22 05:44:21;;;;;;;0.00;0.00;;;21.70;99.90;;;;;;5055435;28;20040;-79
2023/06/22 05:46:48;;;;;;;0.00;0.00;;;21.40;99.90;;;;;;5055477;28;20017;-79
2023/06/22 05:49:14;;;;;;;0.00;0.00;;;21.60;99.90;;;;;;5054106;28;20028;-79
2023/06/22 05:51:41;;;;;;;0.63;0.63;;;22.00;99.90;;;;;;5037356;28;20033;-79
2023/06/22 05:54:08;;;;;;;0.70;0.70;;;22.20;99.90;;;;;;5050877;28;20029;-79
2023/06/22 05:56:34;;;;;;;0.73;0.43;;;22.20;99.90;;;;;;5053134;28;20036;-80
2023/06/22 05:59:00;;;;;;;0.00;0.00;;;22.20;99.90;;;;;;5055124;28;20095;-80
2023/06/22 06:01:26;;;;;;;0.00;0.00;;;22.30;99.90;;;;;;5053551;28;20481;-80
2023/06/22 06:03:52;;;;;;;0.00;0.00;;;22.60;99.90;;;;;;5054790;28;20082;-80
2023/06/22 06:06:21;;;;;;;0.10;0.10;;;22.40;99.90;;;;;;5051301;28;20108;-80
2023/06/22 06:08:46;;;;;;;2.08;1.67;;;22.80;99.90;;;;;;5053368;28;20021;-80
2023/06/22 06:11:12;;;;;;;0.00;0.00;;;22.40;99.90;;;;;;5054548;28;20032;-80
2023/06/22 06:13:38;;;;;;;0.25;0.25;;;22.20;99.90;;;;;;5054517;28;20397;-80
2023/06/22 06:16:04;;;;;;;0.00;0.00;;;22.40;99.90;;;;;;5054512;28;20086;-78
2023/06/22 06:18:29;;;;;;;0.00;0.00;;;22.80;99.90;;;;;;5054686;28;20013;-80
2023/06/22 06:20:55;;;;;;;0.00;0.00;;;23.30;99.90;;;;;;5055634;28;20500;-82
2023/06/22 06:23:21;;;;;;;0.00;0.00;;;23.50;99.90;;;;;;5055015;28;20355;-80
2023/06/22 06:25:47;;;;;;;0.10;0.10;;;23.10;99.90;;;;;;5054790;28;20386;-80
2023/06/22 06:28:13;;;;;;;0.00;0.00;;;23.10;99.90;;;;;;5054701;28;20021;-79
2023/06/22 06:30:39;;;;;;;1.95;1.00;;;22.80;99.90;;;;;;5053035;28;20111;-79
2023/06/22 06:33:08;;;;;;;0.00;0.00;;;23.30;99.90;;;;;;5054716;28;20031;-80
2023/06/22 06:35:34;;;;;;;0.25;0.25;;;23.40;99.90;;;;;;5053284;28;20539;-79
2023/06/22 06:38:00;;;;;;;2.20;0.63;;;23.70;99.90;;;;;;5053968;28;20021;-79
2023/06/22 06:40:26;;;;;;;0.08;0.08;;;23.70;99.90;;;;;;5054411;28;20033;-79
2023/06/22 06:42:51;;;;;;;1.58;1.48;;;24.10;99.90;;;;;;5053976;28;20070;-80
2023/06/22 06:45:22;;;;;;;2.08;1.88;;;23.90;99.90;;;;;;5054765;28;20428;-79
2023/06/22 06:47:49;;;;;;;1.35;1.35;;;24.10;99.90;;;;;;5054137;28;20025;-79
2023/06/22 06:50:16;;;;;;;0.55;0.55;;;24.20;99.90;;;;;;5054064;28;20098;-78
2023/06/22 06:52:42;;;;;;;0.88;0.47;;;24.50;99.90;;;;;;5052241;28;20021;-78
2023/06/22 06:55:12;;;;;;;0.17;0.17;;;24.80;99.90;;;;;;5053793;28;20464;-78
2023/06/22 06:57:39;;;;;;;0.10;0.10;;;24.90;99.90;;;;;;5054168;28;20516;-85
2023/06/22 07:00:13;;;;;;;0.20;0.20;;;25.10;99.90;;;;;;5056017;28;20120;-80
2023/06/22 07:02:43;;;;;;;0.00;0.00;;;24.40;99.90;;;;;;5056282;28;20063;-85
2023/06/22 07:05:11;;;;;;;1.08;1.00;;;24.10;99.90;;;;;;5055626;28;20029;-84
2023/06/22 07:07:36;;;;;;;0.00;0.00;;;24.10;99.90;;;;;;5055826;28;20021;-85
2023/06/22 07:10:03;;;;;;;0.20;0.20;;;24.30;99.90;;;;;;5056417;28;20063;-79
2023/06/22 07:12:29;;;;;;;0.00;0.00;;;24.30;99.90;;;;;;5055923;28;20021;-84
2023/06/22 07:15:04;;;;;;;0.00;0.00;;;24.70;99.90;;;;;;5056790;28;20171;-86
2023/06/22 07:17:30;;;;;;;0.00;0.00;;;25.10;99.90;;;;;;5054542;28;20021;-77
2023/06/22 07:19:57;;;;;;;0.80;0.57;;;24.80;99.90;;;;;;5053293;28;20055;-75
2023/06/22 07:22:22;;;;;;;0.00;0.00;;;24.80;99.90;;;;;;5052607;28;20465;-75
2023/06/22 07:24:49;;;;;;;0.10;0.10;;;25.00;99.90;;;;;;5053642;28;20027;-75
2023/06/22 07:27:18;;;;;;;1.13;0.40;;;25.40;99.90;;;;;;5053886;28;20118;-75
2023/06/22 07:29:44;;;;;;;2.40;2.17;;;25.40;99.90;;;;;;5054050;28;20091;-75
2023/06/22 07:32:10;;;;;;;0.00;0.00;;;25.10;99.90;;;;;;5053885;28;20025;-75
2023/06/22 07:34:36;;;;;;;0.52;0.52;;;25.00;99.90;;;;;;5052202;28;20048;-75
2023/06/22 07:37:03;;;;;;;0.10;0.10;;;25.30;99.90;;;;;;5053785;28;20031;-76
2023/06/22 07:39:28;;;;;;;0.28;0.17;;;25.40;99.90;;;;;;5053895;28;20040;-76
2023/06/22 07:41:54;;;;;;;0.00;0.00;;;25.20;99.90;;;;;;5053405;28;20033;-76
2023/06/22 07:44:20;;;;;;;0.68;0.68;;;25.00;99.90;;;;;;5053564;28;20142;-76
2023/06/22 07:46:46;;;;;;;0.95;0.60;;;24.40;99.90;;;;;;5053460;28;20033;-76
2023/06/22 07:49:12;;;;;;;0.20;0.20;;;24.00;99.90;;;;;;5053259;28;20053;-76
2023/06/22 07:51:38;;;;;;;0.52;0.30;;;24.30;99.90;;;;;;5053344;28;20039;-76
2023/06/22 07:54:03;;;;;;;0.50;0.50;;;24.10;99.90;;;;;;5053453;28;20048;-76
2023/06/22 07:56:29;;;;;;;0.10;0.10;;;24.00;99.90;;;;;;5053671;28;20082;-76
2023/06/22 07:58:58;;;;;;;3.42;0.93;;;23.90;99.90;;;;;;5053200;28;20539;-76
2023/06/22 08:01:24;;;;;;;4.45;0.90;;;24.10;99.90;;;;;;5053432;28;20029;-76
2023/06/22 08:03:50;;;;;;;0.00;0.00;;;24.00;99.90;;;;;;5053149;28;20017;-76
2023/06/22 08:06:16;;;;;;;0.35;0.35;;;24.20;99.90;;;;;;5053179;28;20025;-75
2023/06/22 08:08:42;;;;;;;0.25;0.25;;;24.30;99.90;;;;;;5053373;28;20063;-76
2023/06/22 08:11:08;;;;;;;0.00;0.00;;;24.60;99.90;;;;;;5052039;28;20108;-76
2023/06/22 08:13:34;;;;;;;0.90;0.63;;;24.80;99.90;;;;;;5053501;28;20033;-75
2023/06/22 08:16:00;;;;;;;0.28;0.28;;;24.90;99.90;;;;;;5053154;28;20033;-76
2023/06/22 08:18:26;;;;;;;0.25;0.25;;;25.20;99.90;;;;;;5053012;28;20182;-76
2023/06/22 08:20:52;;;;;;;0.03;0.03;;;25.30;99.90;;;;;;5053208;28;20112;-76
2023/06/22 08:23:18;;;;;;;0.68;0.68;;;25.10;99.90;;;;;;5052903;28;20013;-75
2023/06/22 08:25:44;;;;;;;1.45;0.73;;;25.20;99.90;;;;;;5052023;28;20052;-76
2023/06/22 08:28:10;;;;;;;0.10;0.10;;;25.30;99.90;;;;;;5053021;28;20484;-76
2023/06/22 08:30:36;;;;;;;0.00;0.00;;;25.10;99.90;;;;;;5053198;28;20021;-76
2023/06/22 08:33:01;;;;;;;1.65;1.15;;;25.00;99.90;;;;;;5053278;28;20118;-75
2023/06/22 08:35:27;;;;;;;0.93;0.73;;;25.00;99.90;;;;;;5052165;28;20033;-76
2023/06/22 08:37:54;;;;;;;2.22;1.33;;;24.90;99.90;;;;;;5053444;28;20444;-75
2023/06/22 08:40:20;;;;;;;0.13;0.13;;;24.70;99.90;;;;;;5053476;28;20029;-75
2023/06/22 08:42:47;;;;;;;0.20;0.20;;;24.60;99.90;;;;;;5053174;28;20036;-76
2023/06/22 08:45:14;;;;;;;0.35;0.35;;;24.60;99.90;;;;;;5052697;28;20035;-76
2023/06/22 08:47:41;;;;;;;0.30;0.30;;;24.40;99.90;;;;;;5052474;28;20024;-76
2023/06/22 08:50:11;;;;;;;0.10;0.10;;;24.40;99.90;;;;;;5052654;28;20037;-75
2023/06/22 08:52:38;;;;;;;0.52;0.52;;;24.30;99.90;;;;;;5053136;28;20043;-76
2023/06/22 08:55:04;;;;;;;0.30;0.30;;;24.10;99.90;;;;;;5051825;28;20041;-75
2023/06/22 08:57:30;;;;;;;0.00;0.00;;;24.10;99.90;;;;;;5052676;28;20025;-75
2023/06/22 08:59:58;;;;;;;0.20;0.20;;;23.90;99.90;;;;;;5052438;28;20043;-75
2023/06/22 09:02:25;;;;;;;1.27;0.55;;;24.10;99.90;;;;;;5052217;28;20035;-76
2023/06/22 09:04:55;;;;;;;0.75;0.75;;;23.90;99.90;;;;;;5052369;28;20040;-76
2023/06/22 09:07:25;;;;;;;0.30;0.30;;;23.80;99.90;;;;;;5052474;28;20416;-76
2023/06/22 09:09:51;;;;;;;0.32;0.32;;;23.70;99.90;;;;;;5052463;28;20037;-75
2023/06/22 09:12:24;;;;;;;2.40;1.63;;;23.60;99.90;;;;;;5052409;28;20024;-75
2023/06/22 09:14:50;;;;;;;0.43;0.43;;;23.60;99.90;;;;;;5052156;28;20166;-75
2023/06/22 09:17:15;;;;;;;6.43;2.67;;;23.60;99.90;;;;;;5051087;28;20633;-75
2023/06/22 09:19:41;;;;;;;1.88;1.77;;;23.60;99.90;;;;;;5052359;28;20362;-75
2023/06/22 09:22:07;;;;;;;0.10;0.10;;;23.50;99.90;;;;;;5052413;28;20029;-75
2023/06/22 09:24:33;;;;;;;0.05;0.05;;;23.60;99.90;;;;;;5052258;28;20147;-75
2023/06/22 09:27:00;;;;;;;0.03;0.03;;;23.70;99.90;;;;;;5052323;28;20033;-75
2023/06/22 09:29:26;;;;;;;0.40;0.40;;;23.80;99.90;;;;;;5052306;28;20029;-75
2023/06/22 09:31:55;;;;;;;1.85;0.28;;;23.70;99.90;;;;;;5051821;28;20071;-76
2023/06/22 09:34:21;;;;;;;0.00;0.00;;;23.70;99.90;;;;;;5052496;28;20029;-76
2023/06/22 09:36:47;;;;;;;0.70;0.52;;;23.60;99.90;;;;;;5051949;28;20033;-76
2023/06/22 09:39:14;;;;;;;0.15;0.05;;;23.80;99.90;;;;;;5052407;28;20025;-75
2023/06/22 09:41:39;;;;;;;0.00;0.00;;;23.80;99.90;;;;;;5051744;28;20039;-75
2023/06/22 09:44:05;;;;;;;0.00;0.00;;;23.70;99.90;;;;;;5050851;28;20444;-75
2023/06/22 09:46:31;;;;;;;0.32;0.32;;;23.90;99.90;;;;;;5051723;28;20021;-76
2023/06/22 09:48:56;;;;;;;0.00;0.00;;;23.90;99.90;;;;;;5052201;28;20024;-75
2023/06/22 09:51:23;;;;;;;0.00;0.00;;;23.70;99.90;;;;;;5052099;28;20025;-75
2023/06/22 09:53:53;;;;;;;5.22;0.88;;;24.10;99.90;;;;;;5051978;28;20028;-75
2023/06/22 09:56:20;;;;;;;0.00;0.00;;;23.90;99.90;;;;;;5052134;28;20090;-76
2023/06/22 09:58:47;;;;;;;0.45;0.43;;;23.90;99.90;;;;;;5051938;28;20481;-75
2023/06/22 10:01:15;;;;;;;0.38;0.38;;;23.80;99.90;;;;;;5051543;28;20044;-75
2023/06/22 10:03:41;;;;;;;0.00;0.00;;;23.50;99.90;;;;;;5052001;28;20462;-75
2023/06/22 10:06:07;;;;;;;0.43;0.43;;;23.40;99.90;;;;;;5051398;28;20393;-76
2023/06/22 10:08:33;;;;;;;0.10;0.10;;;23.80;99.90;;;;;;5055829;28;20478;-75
2023/06/22 10:10:59;;;;;;;0.00;0.00;;;23.60;99.90;;;;;;5055186;28;20025;-75
2023/06/22 10:13:24;;;;;;;2.30;0.60;;;23.70;99.90;;;;;;5055551;28;20040;-75
2023/06/22 10:15:51;;;;;;;0.00;0.00;;;23.70;99.90;;;;;;5055016;28;20537;-75
2023/06/22 10:18:18;;;;;;;0.45;0.43;;;23.70;99.90;;;;;;5055628;28;20021;-75
2023/06/22 10:20:47;;;;;;;0.08;0.08;;;23.60;99.90;;;;;;5055226;28;20037;-75
2023/06/22 10:23:12;;;;;;;0.13;0.13;;;23.40;99.90;;;;;;5055164;28;20120;-74
2023/06/22 10:25:38;;;;;;;6.97;0.70;;;23.40;99.90;;;;;;5055182;28;20515;-75
2023/06/22 10:28:04;;;;;;;0.00;0.00;;;23.50;99.90;;;;;;5055280;28;20028;-74
2023/06/22 10:30:30;;;;;;;0.20;0.20;;;23.60;99.90;;;;;;5055101;28;20500;-75
2023/06/22 10:32:56;;;;;;;0.00;0.00;;;23.00;99.90;;;;;;5054866;28;20393;-74
2023/06/22 10:35:21;;;;;;;0.00;0.00;;;23.20;99.90;;;;;;5055072;28;20045;-74
2023/06/22 10:37:48;;;;;;;0.00;0.00;;;23.10;99.90;;;;;;5055025;28;20112;-75
2023/06/22 10:40:16;;;;;;;0.03;0.03;;;22.90;99.90;;;;;;5053679;28;20366;-75
2023/06/22 10:42:42;;;;;;;0.75;0.75;;;23.10;99.90;;;;;;5054805;28;20116;-74
2023/06/22 10:45:09;;;;;;;0.00;0.00;;;23.10;99.90;;;;;;5054614;28;20411;-74
2023/06/22 10:47:35;;;;;;;0.00;0.00;;;23.20;99.90;;;;;;5054826;28;20028;-75
2023/06/22 10:50:02;;;;;;;0.00;0.00;;;23.30;99.90;;;;;;5054772;28;20074;-75
2023/06/22 10:52:27;;;;;;;0.05;0.05;;;23.40;99.90;;;;;;5054828;28;20457;-75
2023/06/22 10:54:53;;;;;;;0.70;0.70;;;22.90;99.90;;;;;;5054619;28;20070;-75
2023/06/22 10:57:19;;;;;;;0.00;0.00;;;23.00;99.90;;;;;;5054527;28;20096;-74
2023/06/22 10:59:45;;;;;;;2.05;1.90;;;23.00;99.90;;;;;;5053072;28;20489;-74
2023/06/22 11:02:11;;;;;;;0.00;0.00;;;22.90;99.90;;;;;;5053307;28;20028;-74
2023/06/22 11:04:36;;;;;;;0.13;0.13;;;22.80;99.90;;;;;;5054734;28;20021;-75
2023/06/22 11:07:02;;;;;;;0.00;0.00;;;22.70;99.90;;;;;;5052971;28;20385;-78
2023/06/22 11:09:28;;;;;;;0.00;0.00;;;22.90;99.90;;;;;;5052978;28;20485;-78
2023/06/22 11:11:55;;;;;;;0.00;0.00;;;22.90;99.90;;;;;;5053885;28;20041;-77
2023/06/22 11:14:22;;;;;;;2.90;1.02;;;22.80;99.90;;;;;;5054296;28;20543;-75
2023/06/22 11:16:48;;;;;;;4.75;2.25;;;22.20;99.90;;;;;;5053715;28;20040;-76
2023/06/22 11:19:14;;;;;;;0.00;0.00;;;21.80;99.90;;;;;;5054291;28;20032;-75
2023/06/22 11:21:39;;;;;;;0.00;0.00;;;21.90;99.90;;;;;;5054326;28;20029;-75
2023/06/22 11:24:05;;;;;;;0.00;0.00;;;22.10;99.90;;;;;;5054036;28;20470;-75
2023/06/22 11:26:33;;;;;;;0.03;0.03;;;22.40;99.90;;;;;;5053794;28;20021;-75
2023/06/22 11:28:59;;;;;;;1.17;1.13;;;22.40;99.90;;;;;;5053939;28;20028;-76
2023/06/22 11:31:24;;;;;;;0.00;0.00;;;22.10;99.90;;;;;;5054012;28;20025;-75
2023/06/22 11:33:50;;;;;;;3.53;0.85;;;22.10;99.90;;;;;;5054123;28;20051;-75
2023/06/22 11:36:16;;;;;;;0.57;0.45;;;22.00;99.90;;;;;;5053707;28;20037;-75
2023/06/22 11:38:43;;;;;;;0.13;0.13;;;22.10;99.90;;;;;;5053871;28;20083;-75
2023/06/22 11:41:10;;;;;;;0.00;0.00;;;22.10;99.90;;;;;;5041773;28;20120;-75
2023/06/22 11:43:36;;;;;;;0.32;0.20;;;22.20;99.90;;;;;;5051473;28;20450;-75
2023/06/22 11:46:05;;;;;;;0.03;0.03;;;22.30;99.90;;;;;;5052364;28;20013;-75
2023/06/22 11:48:31;;;;;;;0.00;0.00;;;22.30;99.90;;;;;;5052411;28;20516;-75
2023/06/22 11:50:58;;;;;;;0.10;0.10;;;22.30;99.90;;;;;;5052857;28;20170;-75
2023/06/22 11:53:25;;;;;;;0.00;0.00;;;22.20;99.90;;;;;;5052478;28;20454;-75
2023/06/22 11:55:52;;;;;;;1.55;0.98;;;22.10;99.90;;;;;;5052109;28;20103;-75
2023/06/22 11:58:18;;;;;;;1.95;1.85;;;22.00;99.90;;;;;;5052808;28;20082;-75
2023/06/22 12:00:45;;;;;;;0.25;0.25;;;22.10;99.90;;;;;;5052323;28;20025;-74
2023/06/22 12:03:11;;;;;;;0.10;0.10;;;22.00;99.90;;;;;;5051368;28;20386;-75
2023/06/22 12:05:38;;;;;;;0.20;0.20;;;21.90;99.90;;;;;;5050897;28;20033;-75
2023/06/22 12:08:04;;;;;;;0.00;0.00;;;22.00;99.90;;;;;;5052480;28;20078;-75
2023/06/22 12:10:30;;;;;;;2.20;0.75;;;22.00;99.90;;;;;;5057782;28;20483;-74
2023/06/22 12:12:57;;;;;;;1.33;1.23;;;22.00;99.90;;;;;;5052390;28;20032;-75
2023/06/22 12:15:23;;;;;;;0.75;0.52;;;21.90;99.90;;;;;;5052261;28;20072;-75
2023/06/22 12:17:49;;;;;;;0.08;0.08;;;22.00;99.90;;;;;;5052366;28;20052;-75
2023/06/22 12:20:15;;;;;;;1.80;0.68;;;22.00;99.90;;;;;;5052084;28;20044;-75
2023/06/22 12:22:41;;;;;;;0.55;0.55;;;22.00;99.90;;;;;;5052188;28;20108;-75
2023/06/22 12:25:08;;;;;;;0.08;0.08;;;21.90;99.90;;;;;;5052009;28;20394;-75
2023/06/22 12:27:35;;;;;;;4.57;1.40;;;21.70;99.90;;;;;;5052456;28;20565;-75
2023/06/22 12:30:01;;;;;;;1.65;1.55;;;21.60;99.90;;;;;;5051166;28;20033;-75
2023/06/22 12:32:27;;;;;;;1.05;1.00;;;21.40;99.90;;;;;;5052179;28;20029;-75
2023/06/22 12:34:53;;;;;;;4.57;3.00;;;21.40;99.90;;;;;;5051829;28;20041;-75
2023/06/22 12:37:20;;;;;;;0.00;0.00;;;21.30;99.90;;;;;;5052247;28;20024;-74
2023/06/22 12:39:46;;;;;;;0.47;0.47;;;21.40;99.90;;;;;;5051504;28;20611;-75
2023/06/22 12:42:12;;;;;;;0.65;0.65;;;21.70;99.90;;;;;;5037396;28;20489;-75
2023/06/22 12:44:41;;;;;;;0.10;0.10;;;21.70;99.90;;;;;;5051958;28;20033;-74
2023/06/22 12:47:11;;;;;;;0.00;0.00;;;21.80;99.90;;;;;;5051769;28;20082;-75